createdAt,value
2022-08-18T00:00:12.343Z,24.27
2022-08-18T00:01:07.697Z,24.26
2022-08-18T00:02:07.255Z,24.25
2022-08-18T00:03:20.714Z,24.25
2022-08-18T00:04:21.747Z,24.25
2022-08-18T00:05:07.473Z,24.25
2022-08-18T00:06:07.633Z,24.25
2022-08-18T00:07:07.143Z,24.23
2022-08-18T00:08:07.677Z,24.23
2022-08-18T00:09:07.368Z,24.20
2022-08-18T00:10:07.699Z,24.18
2022-08-18T00:11:07.213Z,24.16
2022-08-18T00:12:07.459Z,24.17
2022-08-18T00:13:06.880Z,24.17
2022-08-18T00:14:07.261Z,24.17
2022-08-18T00:15:07.799Z,24.14
2022-08-18T00:16:07.268Z,24.12
2022-08-18T00:17:07.628Z,24.09
2022-08-18T00:18:07.022Z,24.03
2022-08-18T00:19:09.415Z,24.00
2022-08-18T00:20:07.615Z,23.96
2022-08-18T00:21:07.049Z,23.95
2022-08-18T00:22:07.051Z,23.94
2022-08-18T00:23:07.097Z,23.91
2022-08-18T00:24:06.981Z,23.87
2022-08-18T00:25:07.278Z,23.85
2022-08-18T00:26:07.320Z,23.80
2022-08-18T00:27:07.528Z,23.82
2022-08-18T00:28:07.354Z,23.83
2022-08-18T00:29:07.248Z,23.83
2022-08-18T00:30:07.484Z,23.83
2022-08-18T00:31:06.929Z,23.84
2022-08-18T00:32:07.421Z,23.82
2022-08-18T00:33:06.947Z,23.83
2022-08-18T00:34:07.048Z,23.80
2022-08-18T00:35:07.053Z,23.79
2022-08-18T00:36:07.186Z,23.77
2022-08-18T00:37:07.368Z,23.76
2022-08-18T00:38:07.342Z,23.77
2022-08-18T00:39:07.101Z,23.78
2022-08-18T00:40:07.439Z,23.79
2022-08-18T00:41:07.460Z,23.79
2022-08-18T00:42:07.024Z,23.79
2022-08-18T00:43:07.333Z,23.78
2022-08-18T00:44:07.260Z,23.81
2022-08-18T00:45:08.018Z,23.81
2022-08-18T00:46:07.041Z,23.82
2022-08-18T00:47:07.115Z,23.82
2022-08-18T00:48:07.237Z,23.83
2022-08-18T00:49:06.884Z,23.85
2022-08-18T00:50:07.203Z,23.82
2022-08-18T00:51:07.031Z,23.82
2022-08-18T00:52:07.295Z,23.79
2022-08-18T00:53:07.237Z,23.77
2022-08-18T00:54:07.279Z,23.74
2022-08-18T00:55:07.528Z,23.71
2022-08-18T00:56:07.436Z,23.69
2022-08-18T00:57:07.395Z,23.70
2022-08-18T00:58:07.506Z,23.66
2022-08-18T00:59:07.584Z,23.63
2022-08-18T01:00:07.933Z,23.60
2022-08-18T01:01:07.477Z,23.57
2022-08-18T01:02:07.630Z,23.54
2022-08-18T01:03:07.196Z,23.54
2022-08-18T01:04:07.215Z,23.53
2022-08-18T01:05:07.563Z,23.5
2022-08-18T01:06:07.616Z,23.51
2022-08-18T01:07:07.225Z,23.5
2022-08-18T01:08:07.258Z,23.48
2022-08-18T01:09:07.794Z,23.5
2022-08-18T01:10:07.133Z,23.48
2022-08-18T01:11:07.218Z,23.48
2022-08-18T01:12:44.985Z,23.48
2022-08-18T01:13:07.511Z,23.46
2022-08-18T01:14:07.425Z,23.45
2022-08-18T01:15:08.149Z,23.43
2022-08-18T01:16:06.807Z,23.38
2022-08-18T01:17:07.449Z,23.33
2022-08-18T01:18:07.307Z,23.27
2022-08-18T01:19:07.256Z,23.23
2022-08-18T01:20:07.538Z,23.21
2022-08-18T01:21:07.322Z,23.18
2022-08-18T01:22:07.625Z,23.13
2022-08-18T01:23:07.871Z,23.10
2022-08-18T01:24:07.216Z,23.05
2022-08-18T01:25:07.315Z,23.03
2022-08-18T01:26:07.687Z,23.02
2022-08-18T01:27:07.186Z,22.99
2022-08-18T01:28:07.394Z,22.98
2022-08-18T01:29:07.809Z,22.96
2022-08-18T01:30:07.800Z,22.96
2022-08-18T01:31:07.075Z,22.95
2022-08-18T01:32:07.407Z,22.95
2022-08-18T01:33:07.763Z,22.96
2022-08-18T01:34:07.097Z,23
2022-08-18T01:35:07.239Z,23
2022-08-18T01:36:07.478Z,22.99
2022-08-18T01:37:07.194Z,22.99
2022-08-18T01:38:07.479Z,22.97
2022-08-18T01:39:07.676Z,22.96
2022-08-18T01:41:22.913Z,22.94
2022-08-18T01:41:26.078Z,22.92
2022-08-18T01:42:07.197Z,22.91
2022-08-18T01:43:07.291Z,22.87
2022-08-18T01:44:07.313Z,22.84
2022-08-18T01:45:07.573Z,22.81
2022-08-18T01:46:07.723Z,22.80
2022-08-18T01:47:07.619Z,22.78
2022-08-18T01:48:06.888Z,22.80
2022-08-18T01:49:07.084Z,22.80
2022-08-18T01:50:07.098Z,22.82
2022-08-18T01:51:07.491Z,22.82
2022-08-18T01:52:07.543Z,22.82
2022-08-18T01:53:07.425Z,22.85
2022-08-18T01:54:07.691Z,22.86
2022-08-18T01:55:07.341Z,22.83
2022-08-18T01:56:07.372Z,22.80
2022-08-18T01:57:07.717Z,22.78
2022-08-18T01:58:07.104Z,22.77
2022-08-18T01:59:07.218Z,22.76
2022-08-18T02:00:08.073Z,22.79
2022-08-18T02:01:07.694Z,22.77
2022-08-18T02:02:07.638Z,22.79
2022-08-18T02:03:07.588Z,22.82
2022-08-18T02:04:31.188Z,22.82
2022-08-18T02:05:07.624Z,22.81
2022-08-18T02:06:07.106Z,22.79
2022-08-18T02:07:07.819Z,22.80
2022-08-18T02:08:07.755Z,22.79
2022-08-18T02:09:07.389Z,22.78
2022-08-18T02:10:11.874Z,22.76
2022-08-18T02:11:07.597Z,22.71
2022-08-18T02:12:07.518Z,22.69
2022-08-18T02:13:07.695Z,22.65
2022-08-18T02:14:07.579Z,22.64
2022-08-18T02:15:07.745Z,22.62
2022-08-18T02:16:07.212Z,22.62
2022-08-18T02:17:07.528Z,22.61
2022-08-18T02:18:07.441Z,22.60
2022-08-18T02:19:07.484Z,22.62
2022-08-18T02:20:07.565Z,22.61
2022-08-18T02:21:10.163Z,22.60
2022-08-18T02:22:07.542Z,22.60
2022-08-18T02:23:07.723Z,22.62
2022-08-18T02:24:07.188Z,22.62
2022-08-18T02:25:07.686Z,22.65
2022-08-18T02:26:06.907Z,22.65
2022-08-18T02:27:06.984Z,22.67
2022-08-18T02:28:07.220Z,22.68
2022-08-18T02:29:07.365Z,22.69
2022-08-18T02:30:07.416Z,22.71
2022-08-18T02:31:07.438Z,22.72
2022-08-18T02:32:07.411Z,22.73
2022-08-18T02:33:07.532Z,22.73
2022-08-18T02:34:07.483Z,22.73
2022-08-18T02:35:09.499Z,22.72
2022-08-18T02:36:07.245Z,22.72
2022-08-18T02:37:09.910Z,22.71
2022-08-18T02:38:07.524Z,22.69
2022-08-18T02:39:07.310Z,22.70
2022-08-18T02:40:07.462Z,22.68
2022-08-18T02:41:07.215Z,22.65
2022-08-18T02:42:07.302Z,22.65
2022-08-18T02:43:07.382Z,22.63
2022-08-18T02:44:07.270Z,22.63
2022-08-18T02:45:07.746Z,22.62
2022-08-18T02:46:07.262Z,22.60
2022-08-18T02:47:07.300Z,22.58
2022-08-18T02:48:07.401Z,22.58
2022-08-18T02:49:07.471Z,22.59
2022-08-18T02:50:07.795Z,22.58
2022-08-18T02:51:07.499Z,22.58
2022-08-18T02:52:07.423Z,22.57
2022-08-18T02:53:07.468Z,22.57
2022-08-18T02:54:07.718Z,22.55
2022-08-18T02:55:07.282Z,22.55
2022-08-18T02:57:07.223Z,22.54
2022-08-18T02:58:07.239Z,22.53
2022-08-18T02:59:07.051Z,22.56
2022-08-18T03:00:07.758Z,22.56
2022-08-18T03:01:07.018Z,22.56
2022-08-18T03:02:07.387Z,22.55
2022-08-18T03:03:07.162Z,22.52
2022-08-18T03:04:07.252Z,22.49
2022-08-18T03:05:07.283Z,22.47
2022-08-18T03:06:06.893Z,22.44
2022-08-18T03:07:07.175Z,22.42
2022-08-18T03:08:07.243Z,22.37
2022-08-18T03:09:07.373Z,22.29
2022-08-18T03:10:32.679Z,22.26
2022-08-18T03:11:07.463Z,22.24
2022-08-18T03:12:07.338Z,22.21
2022-08-18T03:13:07.230Z,22.22
2022-08-18T03:14:11.245Z,22.21
2022-08-18T03:15:07.189Z,22.20
2022-08-18T03:16:07.198Z,22.19
2022-08-18T03:17:07.516Z,22.20
2022-08-18T03:18:07.492Z,22.22
2022-08-18T03:19:07.305Z,22.21
2022-08-18T03:20:07.163Z,22.21
2022-08-18T03:21:07.658Z,22.25
2022-08-18T03:22:18.748Z,22.21
2022-08-18T03:23:09.752Z,22.19
2022-08-18T03:24:09.287Z,22.19
2022-08-18T03:25:07.466Z,22.14
2022-08-18T03:26:07.380Z,22.13
2022-08-18T03:27:07.390Z,22.09
2022-08-18T03:28:07.643Z,22.05
2022-08-18T03:29:06.905Z,22.04
2022-08-18T03:30:11.301Z,21.99
2022-08-18T03:31:06.987Z,21.99
2022-08-18T03:32:07.183Z,21.96
2022-08-18T03:33:07.216Z,21.99
2022-08-18T03:34:07.591Z,21.99
2022-08-18T03:35:07.849Z,22.04
2022-08-18T03:36:07.317Z,22.05
2022-08-18T03:37:07.455Z,22.08
2022-08-18T03:38:07.467Z,22.11
2022-08-18T03:39:07.505Z,22.11
2022-08-18T03:40:07.780Z,22.11
2022-08-18T03:41:07.238Z,22.13
2022-08-18T03:42:07.242Z,22.13
2022-08-18T03:43:49.459Z,22.15
2022-08-18T03:44:06.765Z,22.16
2022-08-18T03:45:13.273Z,22.16
2022-08-18T03:46:06.871Z,22.16
2022-08-18T03:47:06.894Z,22.18
2022-08-18T03:48:06.737Z,22.17
2022-08-18T03:49:07.554Z,22.15
2022-08-18T03:50:07.642Z,22.14
2022-08-18T03:51:06.926Z,22.12
2022-08-18T03:52:06.982Z,22.12
2022-08-18T03:53:07.176Z,22.13
2022-08-18T03:54:07.188Z,22.11
2022-08-18T03:55:07.188Z,22.07
2022-08-18T03:56:07.283Z,22.06
2022-08-18T03:57:07.714Z,22.04
2022-08-18T03:58:07.809Z,22.03
2022-08-18T03:59:06.905Z,22.02
2022-08-18T04:00:07.848Z,22.02
2022-08-18T04:01:07.529Z,21.96
2022-08-18T04:02:07.662Z,21.91
2022-08-18T04:03:07.168Z,21.89
2022-08-18T04:04:07.409Z,21.87
2022-08-18T04:05:07.182Z,21.86
2022-08-18T04:06:12.139Z,21.80
2022-08-18T04:07:07.298Z,21.82
2022-08-18T04:08:07.604Z,21.85
2022-08-18T04:09:07.784Z,21.83
2022-08-18T04:10:07.182Z,21.83
2022-08-18T04:11:07.981Z,21.82
2022-08-18T04:12:07.430Z,21.83
2022-08-18T04:13:07.482Z,21.85
2022-08-18T04:14:07.484Z,21.86
2022-08-18T04:15:07.358Z,21.87
2022-08-18T04:16:07.588Z,21.87
2022-08-18T04:17:07.393Z,21.86
2022-08-18T04:18:08.129Z,21.88
2022-08-18T04:19:07.030Z,21.89
2022-08-18T04:20:07.020Z,21.90
2022-08-18T04:21:07.326Z,21.93
2022-08-18T04:22:07.453Z,21.91
2022-08-18T04:23:07.284Z,21.93
2022-08-18T04:24:07.532Z,21.92
2022-08-18T04:25:07.860Z,21.89
2022-08-18T04:26:07.051Z,21.88
2022-08-18T04:27:07.036Z,21.80
2022-08-18T04:28:07.176Z,21.73
2022-08-18T04:29:07.349Z,21.64
2022-08-18T04:30:07.750Z,21.63
2022-08-18T04:31:09.217Z,21.59
2022-08-18T04:32:07.741Z,21.56
2022-08-18T04:33:07.129Z,21.56
2022-08-18T04:34:07.465Z,21.58
2022-08-18T04:35:12.302Z,21.57
2022-08-18T04:36:07.807Z,21.60
2022-08-18T04:37:07.101Z,21.60
2022-08-18T04:38:07.171Z,21.61
2022-08-18T04:39:07.397Z,21.62
2022-08-18T04:40:07.882Z,21.64
2022-08-18T04:41:06.786Z,21.67
2022-08-18T04:42:07.000Z,21.65
2022-08-18T04:43:07.064Z,21.67
2022-08-18T04:44:07.395Z,21.67
2022-08-18T04:45:07.613Z,21.69
2022-08-18T04:46:07.682Z,21.70
2022-08-18T04:47:06.963Z,21.71
2022-08-18T04:48:07.255Z,21.73
2022-08-18T04:49:07.274Z,21.76
2022-08-18T04:50:07.335Z,21.82
2022-08-18T04:51:07.249Z,21.84
2022-08-18T04:52:37.547Z,21.86
2022-08-18T04:53:07.307Z,21.90
2022-08-18T04:54:07.366Z,21.93
2022-08-18T04:55:07.604Z,21.98
2022-08-18T04:56:07.819Z,22.00
2022-08-18T04:57:06.893Z,22.03
2022-08-18T04:58:07.108Z,22.05
2022-08-18T04:59:07.376Z,22.08
2022-08-18T05:00:08.194Z,22.10
2022-08-18T05:01:07.511Z,22.15
2022-08-18T05:02:10.260Z,22.19
2022-08-18T05:03:07.213Z,22.23
2022-08-18T05:04:07.158Z,22.25
2022-08-18T05:05:07.283Z,22.26
2022-08-18T05:06:07.508Z,22.28
2022-08-18T05:07:07.815Z,22.29
2022-08-18T05:08:06.969Z,22.31
2022-08-18T05:09:07.139Z,22.32
2022-08-18T05:10:07.500Z,22.33
2022-08-18T05:11:07.656Z,22.35
2022-08-18T05:12:07.002Z,22.35
2022-08-18T05:13:07.442Z,22.37
2022-08-18T05:14:07.453Z,22.39
2022-08-18T05:16:11.811Z,22.39
2022-08-18T05:17:07.595Z,22.40
2022-08-18T05:18:07.666Z,22.40
2022-08-18T05:19:08.005Z,22.37
2022-08-18T05:20:07.418Z,22.36
2022-08-18T05:21:09.148Z,22.37
2022-08-18T05:22:07.598Z,22.35
2022-08-18T05:23:07.405Z,22.36
2022-08-18T05:24:07.533Z,22.37
2022-08-18T05:25:07.772Z,22.37
2022-08-18T05:26:07.542Z,22.40
2022-08-18T05:27:07.807Z,22.40
2022-08-18T05:28:07.049Z,22.42
2022-08-18T05:29:18.164Z,22.46
2022-08-18T05:30:08.343Z,22.48
2022-08-18T05:31:13.122Z,22.49
2022-08-18T05:32:07.387Z,22.53
2022-08-18T05:33:07.788Z,22.55
2022-08-18T05:34:06.959Z,22.59
2022-08-18T05:35:07.181Z,22.61
2022-08-18T05:36:07.591Z,22.62
2022-08-18T05:37:08.259Z,22.63
2022-08-18T05:38:07.606Z,22.65
2022-08-18T05:39:08.607Z,22.67
2022-08-18T05:40:11.425Z,22.67
2022-08-18T05:41:07.287Z,22.70
2022-08-18T05:42:07.264Z,22.76
2022-08-18T05:43:07.325Z,22.78
2022-08-18T05:44:07.360Z,22.79
2022-08-18T05:45:07.672Z,22.81
2022-08-18T05:46:07.267Z,22.82
2022-08-18T05:47:07.530Z,22.87
2022-08-18T05:48:07.503Z,22.87
2022-08-18T05:49:07.559Z,22.88
2022-08-18T05:50:07.765Z,22.89
2022-08-18T05:51:07.029Z,22.91
2022-08-18T05:52:07.215Z,22.92
2022-08-18T05:53:12.534Z,22.91
2022-08-18T05:54:07.441Z,22.89
2022-08-18T05:55:07.841Z,22.89
2022-08-18T05:56:07.192Z,22.91
2022-08-18T05:57:07.683Z,22.91
2022-08-18T05:58:07.361Z,22.94
2022-08-18T05:59:07.378Z,22.96
2022-08-18T06:00:08.649Z,22.97
2022-08-18T06:01:07.769Z,23.00
2022-08-18T06:02:07.429Z,23
2022-08-18T06:03:07.328Z,23.01
2022-08-18T06:04:07.586Z,22.98
2022-08-18T06:05:07.365Z,22.97
2022-08-18T06:06:07.593Z,22.93
2022-08-18T06:07:07.300Z,22.90
2022-08-18T06:08:07.618Z,22.88
2022-08-18T06:09:07.700Z,22.82
2022-08-18T06:10:07.186Z,22.79
2022-08-18T06:11:07.607Z,22.79
2022-08-18T06:12:07.012Z,22.78
2022-08-18T06:13:07.238Z,22.70
2022-08-18T06:14:07.482Z,22.64
2022-08-18T06:15:08.061Z,22.62
2022-08-18T06:16:07.522Z,22.56
2022-08-18T06:17:07.357Z,22.54
2022-08-18T06:18:07.408Z,22.51
2022-08-18T06:19:07.651Z,22.45
2022-08-18T06:20:07.962Z,22.37
2022-08-18T06:21:07.122Z,22.32
2022-08-18T06:22:07.251Z,22.29
2022-08-18T06:23:07.397Z,22.26
2022-08-18T06:24:07.459Z,22.19
2022-08-18T06:25:07.569Z,22.14
2022-08-18T06:26:07.453Z,22.07
2022-08-18T06:27:07.650Z,21.98
2022-08-18T06:28:07.697Z,21.94
2022-08-18T06:29:07.234Z,21.84
2022-08-18T06:30:07.847Z,21.77
2022-08-18T06:31:07.191Z,21.73
2022-08-18T06:32:07.493Z,21.70
2022-08-18T06:33:07.558Z,21.71
2022-08-18T06:34:07.607Z,21.65
2022-08-18T06:35:07.087Z,21.66
2022-08-18T06:36:07.225Z,21.65
2022-08-18T06:37:07.283Z,21.65
2022-08-18T06:38:07.511Z,21.63
2022-08-18T06:39:08.000Z,21.62
2022-08-18T06:40:07.497Z,21.62
2022-08-18T06:41:07.817Z,21.61
2022-08-18T06:42:07.506Z,21.60
2022-08-18T06:43:07.688Z,21.60
2022-08-18T06:44:07.200Z,21.60
2022-08-18T06:45:07.752Z,21.60
2022-08-18T06:46:07.402Z,21.59
2022-08-18T06:47:07.563Z,21.55
2022-08-18T06:48:15.636Z,21.52
2022-08-18T06:49:07.408Z,21.52
2022-08-18T06:50:07.913Z,21.50
2022-08-18T06:51:07.308Z,21.48
2022-08-18T06:52:07.388Z,21.5
2022-08-18T06:53:07.385Z,21.54
2022-08-18T06:54:07.491Z,21.55
2022-08-18T06:55:07.650Z,21.54
2022-08-18T06:56:25.804Z,21.54
2022-08-18T06:57:07.009Z,21.54
2022-08-18T06:58:07.135Z,21.53
2022-08-18T06:59:07.140Z,21.52
2022-08-18T07:00:08.141Z,21.50
2022-08-18T07:01:07.787Z,21.52
2022-08-18T07:02:07.589Z,21.49
2022-08-18T07:03:07.367Z,21.46
2022-08-18T07:04:07.638Z,21.48
2022-08-18T07:05:07.237Z,21.43
2022-08-18T07:06:07.338Z,21.39
2022-08-18T07:07:07.364Z,21.34
2022-08-18T07:08:07.676Z,21.26
2022-08-18T07:09:07.141Z,21.18
2022-08-18T07:10:07.291Z,21.15
2022-08-18T07:11:07.494Z,21.14
2022-08-18T07:12:07.790Z,21.13
2022-08-18T07:13:07.190Z,21.11
2022-08-18T07:14:16.209Z,21.14
2022-08-18T07:15:07.778Z,21.18
2022-08-18T07:16:07.263Z,21.22
2022-08-18T07:17:07.452Z,21.23
2022-08-18T07:18:07.661Z,21.24
2022-08-18T07:19:07.657Z,21.26
2022-08-18T07:20:26.191Z,21.29
2022-08-18T07:21:07.578Z,21.28
2022-08-18T07:22:07.725Z,21.26
2022-08-18T07:23:07.896Z,21.20
2022-08-18T07:24:23.158Z,21.15
2022-08-18T07:25:07.455Z,21.17
2022-08-18T07:26:07.704Z,21.16
2022-08-18T07:27:07.329Z,21.17
2022-08-18T07:28:07.746Z,21.13
2022-08-18T07:29:07.185Z,21.11
2022-08-18T07:30:07.795Z,21.13
2022-08-18T07:31:17.070Z,21.13
2022-08-18T07:32:09.468Z,21.09
2022-08-18T07:33:07.663Z,21.09
2022-08-18T07:34:07.763Z,21.11
2022-08-18T07:35:07.947Z,21.16
2022-08-18T07:36:07.038Z,21.21
2022-08-18T07:37:07.421Z,21.24
2022-08-18T07:38:24.856Z,21.32
2022-08-18T07:39:07.362Z,21.37
2022-08-18T07:40:07.857Z,21.39
2022-08-18T07:41:07.427Z,21.43
2022-08-18T07:42:07.544Z,21.39
2022-08-18T07:43:07.916Z,21.40
2022-08-18T07:44:12.950Z,21.37
2022-08-18T07:45:07.396Z,21.31
2022-08-18T07:46:07.837Z,21.31
2022-08-18T07:47:07.282Z,21.29
2022-08-18T07:48:27.512Z,21.23
2022-08-18T07:49:07.714Z,21.23
2022-08-18T07:50:23.372Z,21.25
2022-08-18T07:51:08.784Z,21.26
2022-08-18T07:52:14.601Z,21.30
2022-08-18T07:53:07.434Z,21.31
2022-08-18T07:54:07.126Z,21.31
2022-08-18T07:55:07.469Z,21.30
2022-08-18T07:56:07.519Z,21.33
2022-08-18T07:57:07.794Z,21.37
2022-08-18T07:58:07.318Z,21.32
2022-08-18T07:59:07.493Z,21.33
2022-08-18T08:00:10.512Z,21.31
2022-08-18T08:01:07.184Z,21.28
2022-08-18T08:02:07.523Z,21.29
2022-08-18T08:03:07.153Z,21.30
2022-08-18T08:04:07.362Z,21.32
2022-08-18T08:05:07.407Z,21.36
2022-08-18T08:06:08.017Z,21.36
2022-08-18T08:07:24.003Z,21.41
2022-08-18T08:08:07.005Z,21.46
2022-08-18T08:09:07.544Z,21.51
2022-08-18T08:10:07.720Z,21.54
2022-08-18T08:11:07.161Z,21.56
2022-08-18T08:12:07.201Z,21.60
2022-08-18T08:13:09.656Z,21.57
2022-08-18T08:14:07.555Z,21.59
2022-08-18T08:15:08.323Z,21.60
2022-08-18T08:16:07.385Z,21.61
2022-08-18T08:17:07.974Z,21.62
2022-08-18T08:18:07.232Z,21.64
2022-08-18T08:19:12.385Z,21.65
2022-08-18T08:20:07.285Z,21.65
2022-08-18T08:21:07.666Z,21.65
2022-08-18T08:22:07.123Z,21.69
2022-08-18T08:23:07.689Z,21.67
2022-08-18T08:24:07.342Z,21.69
2022-08-18T08:25:22.454Z,21.72
2022-08-18T08:26:08.524Z,21.76
2022-08-18T08:27:07.441Z,21.79
2022-08-18T08:28:07.603Z,21.80
2022-08-18T08:29:08.031Z,21.81
2022-08-18T08:30:08.227Z,21.80
2022-08-18T08:31:33.072Z,21.82
2022-08-18T08:32:07.757Z,21.80
2022-08-18T08:33:07.157Z,21.79
2022-08-18T08:34:07.414Z,21.80
2022-08-18T08:35:10.423Z,21.83
2022-08-18T08:36:07.401Z,21.85
2022-08-18T08:37:07.503Z,21.89
2022-08-18T08:38:23.252Z,21.92
2022-08-18T08:39:07.157Z,21.89
2022-08-18T08:40:07.986Z,21.86
2022-08-18T08:41:07.585Z,21.86
2022-08-18T08:42:31.844Z,21.88
2022-08-18T08:43:07.556Z,21.91
2022-08-18T08:44:07.170Z,21.88
2022-08-18T08:45:08.156Z,21.85
2022-08-18T08:46:07.410Z,21.84
2022-08-18T08:47:07.386Z,21.83
2022-08-18T08:48:09.555Z,21.86
2022-08-18T08:49:07.390Z,21.90
2022-08-18T08:50:07.673Z,21.92
2022-08-18T08:51:07.093Z,21.89
2022-08-18T08:52:07.331Z,21.92
2022-08-18T08:53:07.558Z,21.92
2022-08-18T08:54:07.755Z,21.90
2022-08-18T08:55:07.153Z,21.89
2022-08-18T08:56:07.090Z,21.91
2022-08-18T08:57:09.847Z,21.93
2022-08-18T08:58:07.297Z,21.89
2022-08-18T08:59:07.652Z,21.91
2022-08-18T09:00:08.513Z,21.87
2022-08-18T09:01:07.735Z,21.85
2022-08-18T09:02:07.311Z,21.89
2022-08-18T09:03:07.378Z,21.90
2022-08-18T09:04:07.415Z,21.92
2022-08-18T09:05:09.381Z,21.90
2022-08-18T09:06:07.348Z,21.95
2022-08-18T09:07:07.626Z,21.98
2022-08-18T09:08:07.003Z,22.01
2022-08-18T09:09:07.555Z,22.01
2022-08-18T09:10:07.608Z,22.02
2022-08-18T09:11:07.795Z,22.02
2022-08-18T09:12:07.127Z,22.05
2022-08-18T09:13:07.298Z,22.04
2022-08-18T09:14:07.474Z,22.05
2022-08-18T09:15:08.104Z,22.07
2022-08-18T09:16:12.196Z,22.08
2022-08-18T09:17:07.555Z,22.11
2022-08-18T09:18:07.349Z,22.10
2022-08-18T09:19:07.486Z,22.13
2022-08-18T09:20:07.838Z,22.18
2022-08-18T09:21:07.285Z,22.20
2022-08-18T09:22:07.366Z,22.22
2022-08-18T09:23:07.594Z,22.29
2022-08-18T09:24:07.014Z,22.34
2022-08-18T09:25:07.473Z,22.37
2022-08-18T09:26:07.872Z,22.45
2022-08-18T09:27:21.472Z,22.47
2022-08-18T09:28:10.824Z,22.50
2022-08-18T09:29:07.772Z,22.54
2022-08-18T09:30:07.331Z,22.56
2022-08-18T09:31:09.098Z,22.57
2022-08-18T09:32:11.336Z,22.61
2022-08-18T09:33:18.552Z,22.63
2022-08-18T09:34:07.450Z,22.65
2022-08-18T09:35:07.433Z,22.69
2022-08-18T09:36:10.157Z,22.73
2022-08-18T09:37:07.745Z,22.75
2022-08-18T09:38:07.217Z,22.79
2022-08-18T09:39:08.020Z,22.80
2022-08-18T09:40:10.852Z,22.83
2022-08-18T09:41:07.310Z,22.87
2022-08-18T09:42:07.157Z,22.86
2022-08-18T09:43:07.601Z,22.86
2022-08-18T09:44:07.637Z,22.87
2022-08-18T09:45:07.438Z,22.86
2022-08-18T09:46:07.487Z,22.90
2022-08-18T09:47:07.437Z,22.94
2022-08-18T09:48:10.106Z,22.93
2022-08-18T09:49:08.424Z,22.94
2022-08-18T09:50:09.170Z,22.97
2022-08-18T09:51:07.343Z,23.02
2022-08-18T09:52:07.672Z,23.06
2022-08-18T09:53:07.291Z,23.08
2022-08-18T09:54:07.532Z,23.09
2022-08-18T09:55:07.804Z,23.11
2022-08-18T09:56:07.199Z,23.11
2022-08-18T09:57:07.491Z,23.14
2022-08-18T09:58:07.685Z,23.17
2022-08-18T09:59:09.837Z,23.21
2022-08-18T10:00:08.301Z,23.23
2022-08-18T10:01:07.090Z,23.25
2022-08-18T10:02:14.216Z,23.24
2022-08-18T10:03:07.526Z,23.25
2022-08-18T10:04:06.967Z,23.25
2022-08-18T10:05:07.665Z,23.27
2022-08-18T10:07:07.342Z,23.33
2022-08-18T10:08:07.674Z,23.38
2022-08-18T10:10:18.478Z,23.48
2022-08-18T10:11:09.659Z,23.54
2022-08-18T10:12:08.160Z,23.60
2022-08-18T10:13:07.219Z,23.63
2022-08-18T10:14:07.803Z,23.69
2022-08-18T10:15:07.485Z,23.73
2022-08-18T10:16:10.896Z,23.77
2022-08-18T10:17:23.580Z,23.77
2022-08-18T10:18:07.712Z,23.79
2022-08-18T10:19:07.681Z,23.79
2022-08-18T10:20:07.222Z,23.77
2022-08-18T10:21:07.777Z,23.76
2022-08-18T10:22:07.439Z,23.72
2022-08-18T10:23:07.912Z,23.71
2022-08-18T10:25:22.233Z,23.73
2022-08-18T10:26:11.427Z,23.78
2022-08-18T10:27:07.190Z,23.84
2022-08-18T10:28:07.335Z,23.89
2022-08-18T10:29:07.246Z,23.93
2022-08-18T10:30:07.879Z,23.94
2022-08-18T10:31:10.307Z,23.95
2022-08-18T10:32:07.222Z,24.01
2022-08-18T10:33:18.009Z,24.05
2022-08-18T10:34:16.515Z,24.08
2022-08-18T10:35:07.766Z,24.11
2022-08-18T10:36:07.553Z,24.12
2022-08-18T10:37:07.272Z,24.13
2022-08-18T10:38:07.325Z,24.16
2022-08-18T10:39:07.640Z,24.19
2022-08-18T10:40:07.344Z,24.20
2022-08-18T10:41:15.338Z,24.24
2022-08-18T10:42:07.231Z,24.27
2022-08-18T10:43:26.824Z,24.33
2022-08-18T10:44:21.105Z,24.38
2022-08-18T10:45:07.542Z,24.45
2022-08-18T10:46:24.902Z,24.5
2022-08-18T10:47:12.157Z,24.55
2022-08-18T10:48:11.953Z,24.59
2022-08-18T10:49:08.861Z,24.64
2022-08-18T10:50:07.638Z,24.70
2022-08-18T10:51:07.498Z,24.78
2022-08-18T10:52:07.672Z,24.87
2022-08-18T10:54:07.718Z,25.02
2022-08-18T10:56:07.648Z,25.20
2022-08-18T10:57:07.139Z,25.29
2022-08-18T10:58:07.332Z,25.35
2022-08-18T10:59:07.274Z,25.40
2022-08-18T11:00:08.423Z,25.43
2022-08-18T11:01:07.223Z,25.50
2022-08-18T11:02:07.677Z,25.54
2022-08-18T11:03:42.618Z,25.57
2022-08-18T11:04:14.060Z,25.60
2022-08-18T11:05:07.958Z,25.62
2022-08-18T11:06:14.501Z,25.68
2022-08-18T11:07:08.374Z,25.70
2022-08-18T11:08:15.734Z,25.75
2022-08-18T11:09:07.769Z,25.79
2022-08-18T11:10:29.460Z,25.80
2022-08-18T11:11:33.031Z,25.82
2022-08-18T11:12:07.569Z,25.81
2022-08-18T11:13:08.850Z,25.80
2022-08-18T11:14:07.811Z,25.76
2022-08-18T11:15:23.288Z,25.72
2022-08-18T11:17:07.566Z,25.72
2022-08-18T11:18:10.337Z,25.75
2022-08-18T11:19:07.583Z,25.81
2022-08-18T11:20:07.509Z,25.85
2022-08-18T11:21:08.231Z,25.86
2022-08-18T11:22:07.353Z,25.91
2022-08-18T11:23:07.823Z,25.89
2022-08-18T11:24:07.710Z,25.91
2022-08-18T11:25:07.935Z,25.96
2022-08-18T11:26:07.260Z,26
2022-08-18T11:27:15.202Z,26.02
2022-08-18T11:28:07.786Z,26.02
2022-08-18T11:29:07.489Z,26.01
2022-08-18T11:30:08.059Z,26.02
2022-08-18T11:31:07.772Z,26.03
2022-08-18T11:32:09.277Z,26.03
2022-08-18T11:33:07.132Z,26
2022-08-18T11:34:07.304Z,26.03
2022-08-18T11:35:07.612Z,26.02
2022-08-18T11:36:07.430Z,26
2022-08-18T11:37:08.907Z,26.01
2022-08-18T11:38:07.694Z,26.00
2022-08-18T11:39:07.371Z,26.04
2022-08-18T11:40:09.610Z,26.07
2022-08-18T11:41:09.488Z,26.10
2022-08-18T11:42:07.451Z,26.14
2022-08-18T11:43:07.924Z,26.09
2022-08-18T11:44:08.037Z,26.01
2022-08-18T11:45:07.876Z,25.94
2022-08-18T11:46:07.650Z,25.88
2022-08-18T11:47:07.998Z,25.91
2022-08-18T11:48:22.018Z,25.95
2022-08-18T11:49:07.559Z,26.02
2022-08-18T11:50:07.466Z,26.04
2022-08-18T11:51:07.515Z,26.09
2022-08-18T11:52:07.297Z,26.13
2022-08-18T11:53:07.740Z,26.14
2022-08-18T11:54:07.405Z,26.15
2022-08-18T11:55:16.338Z,26.20
2022-08-18T11:57:10.098Z,26.31
2022-08-18T11:58:12.688Z,26.39
2022-08-18T11:59:07.207Z,26.40
2022-08-18T12:00:22.661Z,26.44
2022-08-18T12:01:08.168Z,26.45
2022-08-18T12:02:07.698Z,26.46
2022-08-18T12:03:07.391Z,26.48
2022-08-18T12:04:26.330Z,26.53
2022-08-18T12:06:07.749Z,26.59
2022-08-18T12:07:07.805Z,26.65
2022-08-18T12:09:07.615Z,26.70
2022-08-18T12:10:17.299Z,26.73
2022-08-18T12:11:26.857Z,26.76
2022-08-18T12:12:07.697Z,26.79
2022-08-18T12:13:07.195Z,26.82
2022-08-18T12:14:31.435Z,26.80
2022-08-18T12:15:17.218Z,26.80
2022-08-18T12:16:07.602Z,26.82
2022-08-18T12:17:07.195Z,26.82
2022-08-18T12:18:07.225Z,26.86
2022-08-18T12:19:07.160Z,26.89
2022-08-18T12:20:07.513Z,26.89
2022-08-18T12:21:07.298Z,26.93
2022-08-18T12:22:11.780Z,26.95
2022-08-18T12:25:12.172Z,27.04
2022-08-18T12:26:07.102Z,27.04
2022-08-18T12:27:20.524Z,27.07
2022-08-18T12:28:10.868Z,27.12
2022-08-18T12:29:08.684Z,27.15
2022-08-18T12:30:07.566Z,27.18
2022-08-18T12:31:17.052Z,27.16
2022-08-18T12:32:08.499Z,27.13
2022-08-18T12:33:12.421Z,27.11
2022-08-18T12:34:07.350Z,27.09
2022-08-18T12:35:09.371Z,27.06
2022-08-18T12:36:07.404Z,27.04
2022-08-18T12:37:34.020Z,27.08
2022-08-18T12:38:13.889Z,27.10
2022-08-18T12:39:07.349Z,27.14
2022-08-18T12:40:08.621Z,27.19
2022-08-18T12:41:07.320Z,27.18
2022-08-18T12:42:07.392Z,27.19
2022-08-18T12:43:07.747Z,27.09
2022-08-18T12:44:13.165Z,27.04
2022-08-18T12:45:07.580Z,27.05
2022-08-18T12:46:07.398Z,27.06
2022-08-18T12:47:07.452Z,27.08
2022-08-18T12:48:07.235Z,27.10
2022-08-18T12:49:07.482Z,27.11
2022-08-18T12:50:07.382Z,27.15
2022-08-18T12:51:07.976Z,27.19
2022-08-18T12:52:07.598Z,27.25
2022-08-18T12:53:07.501Z,27.26
2022-08-18T12:54:07.468Z,27.25
2022-08-18T12:55:07.190Z,27.25
2022-08-18T12:56:08.561Z,27.23
2022-08-18T12:57:07.048Z,27.17
2022-08-18T12:58:07.270Z,27.12
2022-08-18T12:59:07.587Z,27.08
2022-08-18T13:00:08.113Z,27.05
2022-08-18T13:01:07.684Z,27.06
2022-08-18T13:02:07.440Z,27.06
2022-08-18T13:03:07.469Z,27.10
2022-08-18T13:04:11.416Z,27.11
2022-08-18T13:06:07.586Z,27.10
2022-08-18T13:07:07.391Z,27.10